NO-0005 weather

CLOSED Lindøye Seaplane Base
Oslo, Oslo, Norway

Public forecast

Using degrees Celsius for public forecast. Weather courtesy of forecast.io.

METAR (pilot weather report)

Closest report is Oslo, Fornebu Airport, 3.1 nm (5.7 km) W. Retrieved 2019/05/26 11:20 UTC (0 seconds ago):

ENFB 261120Z AUTO 03009KT 9999NDV BKN025/// 07/04 Q1006 W///S4

TAF (pilot weather forecast)

Closest forecast is Oslo Gardermoen Airport, 21.5 nm (39.8 km) NNE. Retrieved 2019/05/26 06:57 UTC (4 hours ago):

TAF ENGM 260500Z 2606/2706 34012KT 9999 SCT030 BKN050 TEMPO 2607/2611 35015G28KT